sensor_id;sensor_type;location;lat;lon;timestamp;noise_LAeq;noise_LA_min;noise_LA_max;noise_LA01;noise_LA95
37163;Laerm;23057;48.554;14.454;2023-01-23T00:00:08;50.06;48.90;51.13;;
37163;Laerm;23057;48.554;14.454;2023-01-23T00:02:40;50.04;48.81;51.40;;
37163;Laerm;23057;48.554;14.454;2023-01-23T00:05:11;50.06;49.00;51.41;;
37163;Laerm;23057;48.554;14.454;2023-01-23T00:07:42;50.05;48.94;51.38;;
37163;Laerm;23057;48.554;14.454;2023-01-23T00:10:13;50.05;48.99;51.17;;
37163;Laerm;23057;48.554;14.454;2023-01-23T00:12:45;50.05;48.78;53.04;;
37163;Laerm;23057;48.554;14.454;2023-01-23T00:15:18;50.05;49.11;52.76;;
37163;Laerm;23057;48.554;14.454;2023-01-23T00:17:49;50.05;48.80;51.44;;
37163;Laerm;23057;48.554;14.454;2023-01-23T00:20:20;50.04;48.81;51.21;;
37163;Laerm;23057;48.554;14.454;2023-01-23T00:22:51;50.04;48.73;52.47;;
37163;Laerm;23057;48.554;14.454;2023-01-23T00:25:21;50.04;48.45;51.72;;
37163;Laerm;23057;48.554;14.454;2023-01-23T00:27:52;50.05;48.99;51.46;;
37163;Laerm;23057;48.554;14.454;2023-01-23T00:30:23;50.05;48.96;51.53;;
37163;Laerm;23057;48.554;14.454;2023-01-23T00:32:54;50.05;48.87;51.51;;
37163;Laerm;23057;48.554;14.454;2023-01-23T00:35:24;50.06;49.10;52.01;;
37163;Laerm;23057;48.554;14.454;2023-01-23T00:37:55;50.03;48.74;51.13;;
37163;Laerm;23057;48.554;14.454;2023-01-23T00:40:27;50.03;48.96;51.70;;
37163;Laerm;23057;48.554;14.454;2023-01-23T00:42:58;50.03;48.98;51.17;;
37163;Laerm;23057;48.554;14.454;2023-01-23T00:45:28;50.04;48.94;52.01;;
37163;Laerm;23057;48.554;14.454;2023-01-23T00:47:59;50.03;48.73;51.08;;
37163;Laerm;23057;48.554;14.454;2023-01-23T00:51:23;50.02;49.04;51.50;;
37163;Laerm;23057;48.554;14.454;2023-01-23T00:53:55;50.03;48.85;56.77;;
37163;Laerm;23057;48.554;14.454;2023-01-23T00:56:26;50.03;48.87;51.13;;
37163;Laerm;23057;48.554;14.454;2023-01-23T00:58:56;50.03;48.63;51.09;;
37163;Laerm;23057;48.554;14.454;2023-01-23T01:01:27;50.03;48.95;51.55;;
37163;Laerm;23057;48.554;14.454;2023-01-23T01:04:00;50.04;48.92;51.26;;
37163;Laerm;23057;48.554;14.454;2023-01-23T01:06:31;50.04;48.75;51.12;;
37163;Laerm;23057;48.554;14.454;2023-01-23T01:09:03;50.04;49.04;51.20;;
37163;Laerm;23057;48.554;14.454;2023-01-23T01:11:34;50.04;48.94;51.04;;
37163;Laerm;23057;48.554;14.454;2023-01-23T01:14:04;50.04;49.06;52.06;;
37163;Laerm;23057;48.554;14.454;2023-01-23T01:16:35;50.02;48.85;51.09;;
37163;Laerm;23057;48.554;14.454;2023-01-23T01:19:06;50.04;49.04;51.51;;
37163;Laerm;23057;48.554;14.454;2023-01-23T01:21:39;50.03;49.06;51.22;;
37163;Laerm;23057;48.554;14.454;2023-01-23T01:24:10;50.03;48.96;52.17;;
37163;Laerm;23057;48.554;14.454;2023-01-23T01:26:41;50.03;48.96;51.23;;
37163;Laerm;23057;48.554;14.454;2023-01-23T01:29:12;50.04;48.88;51.50;;
37163;Laerm;23057;48.554;14.454;2023-01-23T01:31:43;50.04;48.98;51.11;;
37163;Laerm;23057;48.554;14.454;2023-01-23T01:34:14;50.05;48.70;52.22;;
37163;Laerm;23057;48.554;14.454;2023-01-23T01:36:44;50.03;48.98;51.22;;
37163;Laerm;23057;48.554;14.454;2023-01-23T01:39:15;50.04;48.69;51.03;;
37163;Laerm;23057;48.554;14.454;2023-01-23T01:41:46;50.04;48.95;51.45;;
37163;Laerm;23057;48.554;14.454;2023-01-23T01:44:19;50.03;48.87;51.33;;
37163;Laerm;23057;48.554;14.454;2023-01-23T01:46:50;50.04;49.11;51.38;;
37163;Laerm;23057;48.554;14.454;2023-01-23T01:49:30;50.03;48.77;51.37;;
37163;Laerm;23057;48.554;14.454;2023-01-23T01:52:07;50.04;49.03;51.51;;
37163;Laerm;23057;48.554;14.454;2023-01-23T01:54:57;50.05;49.07;51.94;;
37163;Laerm;23057;48.554;14.454;2023-01-23T01:57:34;50.03;49.07;51.31;;
37163;Laerm;23057;48.554;14.454;2023-01-23T02:00:13;50.03;48.99;51.95;;
37163;Laerm;23057;48.554;14.454;2023-01-23T02:02:54;50.04;48.71;51.30;;
37163;Laerm;23057;48.554;14.454;2023-01-23T02:05:33;50.03;49.04;51.58;;
37163;Laerm;23057;48.554;14.454;2023-01-23T02:08:30;50.04;48.81;51.28;;
37163;Laerm;23057;48.554;14.454;2023-01-23T02:11:02;50.04;49.04;51.15;;
37163;Laerm;23057;48.554;14.454;2023-01-23T02:13:37;50.05;48.66;51.98;;
37163;Laerm;23057;48.554;14.454;2023-01-23T02:16:18;50.05;48.80;51.13;;
37163;Laerm;23057;48.554;14.454;2023-01-23T02:18:53;50.05;48.91;51.09;;
37163;Laerm;23057;48.554;14.454;2023-01-23T02:21:27;50.04;49.00;51.30;;
37163;Laerm;23057;48.554;14.454;2023-01-23T02:26:43;50.02;48.87;51.37;;
37163;Laerm;23057;48.554;14.454;2023-01-23T02:29:15;50.03;48.99;51.17;;
37163;Laerm;23057;48.554;14.454;2023-01-23T02:31:46;50.03;48.94;51.33;;
37163;Laerm;23057;48.554;14.454;2023-01-23T02:34:19;50.03;48.98;52.08;;
37163;Laerm;23057;48.554;14.454;2023-01-23T02:36:51;50.04;48.95;51.26;;
37163;Laerm;23057;48.554;14.454;2023-01-23T02:39:22;50.04;48.94;51.42;;
37163;Laerm;23057;48.554;14.454;2023-01-23T02:41:54;50.03;48.99;51.62;;
37163;Laerm;23057;48.554;14.454;2023-01-23T02:44:30;50.03;48.98;52.14;;
37163;Laerm;23057;48.554;14.454;2023-01-23T02:47:06;50.04;49.03;51.08;;
37163;Laerm;23057;48.554;14.454;2023-01-23T02:49:41;50.04;49.04;51.15;;
37163;Laerm;23057;48.554;14.454;2023-01-23T02:52:12;50.04;48.99;51.53;;
37163;Laerm;23057;48.554;14.454;2023-01-23T02:54:43;50.05;48.98;52.11;;
37163;Laerm;23057;48.554;14.454;2023-01-23T02:57:13;50.05;49.02;51.48;;
37163;Laerm;23057;48.554;14.454;2023-01-23T02:59:44;50.04;48.99;51.68;;
37163;Laerm;23057;48.554;14.454;2023-01-23T03:02:34;50.02;48.98;51.40;;
37163;Laerm;23057;48.554;14.454;2023-01-23T03:05:05;50.04;49.02;51.67;;
37163;Laerm;23057;48.554;14.454;2023-01-23T03:07:36;50.03;48.87;51.37;;
37163;Laerm;23057;48.554;14.454;2023-01-23T03:10:08;50.03;48.99;51.72;;
37163;Laerm;23057;48.554;14.454;2023-01-23T03:12:39;50.04;48.91;51.17;;
37163;Laerm;23057;48.554;14.454;2023-01-23T03:15:12;50.04;48.95;51.54;;
37163;Laerm;23057;48.554;14.454;2023-01-23T03:17:43;50.04;48.99;51.54;;
37163;Laerm;23057;48.554;14.454;2023-01-23T03:20:18;50.04;49.00;51.80;;
37163;Laerm;23057;48.554;14.454;2023-01-23T03:22:49;50.05;48.87;51.81;;
37163;Laerm;23057;48.554;14.454;2023-01-23T03:25:20;50.03;48.91;52.14;;
37163;Laerm;23057;48.554;14.454;2023-01-23T03:27:51;50.04;49.10;51.29;;
37163;Laerm;23057;48.554;14.454;2023-01-23T03:30:21;50.04;48.96;51.53;;
37163;Laerm;23057;48.554;14.454;2023-01-23T03:32:54;50.04;48.91;51.28;;
37163;Laerm;23057;48.554;14.454;2023-01-23T03:35:25;50.04;49.06;51.92;;
37163;Laerm;23057;48.554;14.454;2023-01-23T03:37:56;50.04;48.98;51.09;;
37163;Laerm;23057;48.554;14.454;2023-01-23T03:40:27;50.05;48.90;51.81;;
37163;Laerm;23057;48.554;14.454;2023-01-23T03:43:16;50.03;48.95;51.44;;
37163;Laerm;23057;48.554;14.454;2023-01-23T03:45:47;50.04;49.03;52.36;;
37163;Laerm;23057;48.554;14.454;2023-01-23T03:48:17;50.04;49.06;51.31;;
37163;Laerm;23057;48.554;14.454;2023-01-23T03:50:48;50.02;48.71;51.19;;
37163;Laerm;23057;48.554;14.454;2023-01-23T03:53:19;50.03;49.03;51.66;;
37163;Laerm;23057;48.554;14.454;2023-01-23T03:55:50;50.03;48.81;52.33;;
37163;Laerm;23057;48.554;14.454;2023-01-23T03:58:20;50.03;49.10;51.17;;
37163;Laerm;23057;48.554;14.454;2023-01-23T04:00:51;50.04;48.95;51.44;;
37163;Laerm;23057;48.554;14.454;2023-01-23T04:03:22;50.04;49.06;51.73;;
37163;Laerm;23057;48.554;14.454;2023-01-23T04:05:57;50.03;48.95;52.01;;
37163;Laerm;23057;48.554;14.454;2023-01-23T04:08:29;50.04;49.08;51.22;;
37163;Laerm;23057;48.554;14.454;2023-01-23T04:11:06;50.03;49.07;51.21;;
37163;Laerm;23057;48.554;14.454;2023-01-23T04:13:37;50.05;48.99;52.02;;
37163;Laerm;23057;48.554;14.454;2023-01-23T04:16:08;50.04;48.88;51.58;;
37163;Laerm;23057;48.554;14.454;2023-01-23T04:18:39;50.04;48.92;55.00;;
37163;Laerm;23057;48.554;14.454;2023-01-23T04:21:10;50.04;49.08;51.29;;
37163;Laerm;23057;48.554;14.454;2023-01-23T04:23:40;50.03;48.78;52.04;;
37163;Laerm;23057;48.554;14.454;2023-01-23T04:26:12;50.04;48.98;51.64;;
37163;Laerm;23057;48.554;14.454;2023-01-23T04:28:43;50.04;48.88;51.39;;
37163;Laerm;23057;48.554;14.454;2023-01-23T04:31:13;50.05;48.96;51.12;;
37163;Laerm;23057;48.554;14.454;2023-01-23T04:33:44;50.05;48.95;52.44;;
37163;Laerm;23057;48.554;14.454;2023-01-23T04:36:15;50.05;48.81;51.75;;
37163;Laerm;23057;48.554;14.454;2023-01-23T04:38:46;50.04;49.05;52.44;;
37163;Laerm;23057;48.554;14.454;2023-01-23T04:41:24;50.04;48.83;51.67;;
37163;Laerm;23057;48.554;14.454;2023-01-23T04:43:56;50.03;48.98;52.47;;
37163;Laerm;23057;48.554;14.454;2023-01-23T04:46:26;50.03;48.95;51.17;;
37163;Laerm;23057;48.554;14.454;2023-01-23T04:48:57;50.05;49.11;51.38;;
37163;Laerm;23057;48.554;14.454;2023-01-23T04:51:28;50.04;48.92;51.60;;
37163;Laerm;23057;48.554;14.454;2023-01-23T04:53:58;50.04;49.10;52.60;;
37163;Laerm;23057;48.554;14.454;2023-01-23T04:56:29;50.05;48.99;51.43;;
37163;Laerm;23057;48.554;14.454;2023-01-23T04:59:00;50.05;49.03;51.73;;
37163;Laerm;23057;48.554;14.454;2023-01-23T05:01:32;50.05;48.99;51.64;;
37163;Laerm;23057;48.554;14.454;2023-01-23T05:04:03;50.06;49.00;51.72;;
37163;Laerm;23057;48.554;14.454;2023-01-23T05:06:34;50.05;49.02;51.23;;
37163;Laerm;23057;48.554;14.454;2023-01-23T05:09:06;50.05;49.00;51.51;;
37163;Laerm;23057;48.554;14.454;2023-01-23T05:11:37;50.04;48.77;51.45;;
37163;Laerm;23057;48.554;14.454;2023-01-23T05:14:08;50.05;48.95;52.29;;
37163;Laerm;23057;48.554;14.454;2023-01-23T05:16:38;50.04;48.92;51.56;;
37163;Laerm;23057;48.554;14.454;2023-01-23T05:19:09;50.05;48.98;51.62;;
37163;Laerm;23057;48.554;14.454;2023-01-23T05:21:40;50.03;48.95;51.80;;
37163;Laerm;23057;48.554;14.454;2023-01-23T05:24:11;50.03;49.03;51.78;;
37163;Laerm;23057;48.554;14.454;2023-01-23T05:26:42;50.03;49.04;51.57;;
37163;Laerm;23057;48.554;14.454;2023-01-23T05:29:12;50.02;48.90;51.17;;
37163;Laerm;23057;48.554;14.454;2023-01-23T05:31:43;50.03;48.92;51.88;;
37163;Laerm;23057;48.554;14.454;2023-01-23T05:34:14;50.03;48.99;52.51;;
37163;Laerm;23057;48.554;14.454;2023-01-23T05:36:45;50.02;48.90;51.49;;
37163;Laerm;23057;48.554;14.454;2023-01-23T05:39:16;50.03;48.77;51.45;;
37163;Laerm;23057;48.554;14.454;2023-01-23T05:41:46;50.04;48.84;51.71;;
37163;Laerm;23057;48.554;14.454;2023-01-23T05:44:17;50.04;48.87;52.51;;
37163;Laerm;23057;48.554;14.454;2023-01-23T05:46:48;50.03;48.80;52.41;;
37163;Laerm;23057;48.554;14.454;2023-01-23T05:49:19;50.02;48.88;51.59;;
37163;Laerm;23057;48.554;14.454;2023-01-23T05:51:49;50.02;49.04;51.47;;
37163;Laerm;23057;48.554;14.454;2023-01-23T05:54:20;50.03;49.04;52.57;;
37163;Laerm;23057;48.554;14.454;2023-01-23T05:56:51;50.02;48.94;52.18;;
37163;Laerm;23057;48.554;14.454;2023-01-23T05:59:22;50.05;48.99;52.24;;
37163;Laerm;23057;48.554;14.454;2023-01-23T06:01:52;50.01;48.99;51.59;;
37163;Laerm;23057;48.554;14.454;2023-01-23T06:04:23;50.02;49.02;51.92;;
37163;Laerm;23057;48.554;14.454;2023-01-23T06:06:55;50.03;49.06;51.89;;
37163;Laerm;23057;48.554;14.454;2023-01-23T06:09:26;50.03;48.92;51.25;;
37163;Laerm;23057;48.554;14.454;2023-01-23T06:11:56;50.02;48.92;51.33;;
37163;Laerm;23057;48.554;14.454;2023-01-23T06:14:27;50.01;48.87;51.81;;
37163;Laerm;23057;48.554;14.454;2023-01-23T06:16:58;50.04;48.81;51.78;;
37163;Laerm;23057;48.554;14.454;2023-01-23T06:19:29;50.04;48.96;51.31;;
37163;Laerm;23057;48.554;14.454;2023-01-23T06:22:00;50.04;48.78;52.08;;
37163;Laerm;23057;48.554;14.454;2023-01-23T06:24:30;50.02;48.87;52.04;;
37163;Laerm;23057;48.554;14.454;2023-01-23T06:27:01;50.04;48.98;51.85;;
37163;Laerm;23057;48.554;14.454;2023-01-23T06:29:36;50.03;48.96;52.18;;
37163;Laerm;23057;48.554;14.454;2023-01-23T06:32:07;50.04;49.07;52.06;;
37163;Laerm;23057;48.554;14.454;2023-01-23T06:34:38;50.05;48.54;52.17;;
37163;Laerm;23057;48.554;14.454;2023-01-23T06:37:09;50.13;49.08;52.51;;
37163;Laerm;23057;48.554;14.454;2023-01-23T06:39:40;50.20;49.11;52.24;;
37163;Laerm;23057;48.554;14.454;2023-01-23T06:42:10;50.12;49.12;52.61;;
37163;Laerm;23057;48.554;14.454;2023-01-23T06:44:41;50.14;49.03;52.88;;
37163;Laerm;23057;48.554;14.454;2023-01-23T06:47:12;50.06;48.61;52.37;;
37163;Laerm;23057;48.554;14.454;2023-01-23T06:49:43;50.14;49.00;52.16;;
37163;Laerm;23057;48.554;14.454;2023-01-23T06:52:14;50.18;48.96;53.83;;
37163;Laerm;23057;48.554;14.454;2023-01-23T06:54:45;50.16;48.98;52.33;;
37163;Laerm;23057;48.554;14.454;2023-01-23T06:57:15;50.44;49.00;53.16;;
37163;Laerm;23057;48.554;14.454;2023-01-23T06:59:46;51.03;49.67;53.26;;
37163;Laerm;23057;48.554;14.454;2023-01-23T07:02:17;50.20;49.04;52.37;;
37163;Laerm;23057;48.554;14.454;2023-01-23T07:04:48;50.06;49.03;53.04;;
37163;Laerm;23057;48.554;14.454;2023-01-23T07:07:18;50.10;48.92;51.95;;
37163;Laerm;23057;48.554;14.454;2023-01-23T07:09:49;50.18;49.08;53.00;;
37163;Laerm;23057;48.554;14.454;2023-01-23T07:12:20;50.27;49.10;55.08;;
37163;Laerm;23057;48.554;14.454;2023-01-23T07:14:51;50.33;49.20;56.14;;
37163;Laerm;23057;48.554;14.454;2023-01-23T07:17:21;50.06;48.85;52.10;;
37163;Laerm;23057;48.554;14.454;2023-01-23T07:19:52;50.05;49.12;51.33;;
37163;Laerm;23057;48.554;14.454;2023-01-23T07:22:23;50.06;48.96;52.08;;
37163;Laerm;23057;48.554;14.454;2023-01-23T07:24:54;50.08;49.08;51.82;;
37163;Laerm;23057;48.554;14.454;2023-01-23T07:27:25;50.09;49.02;52.45;;
37163;Laerm;23057;48.554;14.454;2023-01-23T07:29:56;50.10;49.07;51.50;;
37163;Laerm;23057;48.554;14.454;2023-01-23T07:32:27;50.10;49.15;52.58;;
37163;Laerm;23057;48.554;14.454;2023-01-23T07:34:57;50.20;49.08;52.88;;
37163;Laerm;23057;48.554;14.454;2023-01-23T07:37:28;50.32;49.18;51.72;;
37163;Laerm;23057;48.554;14.454;2023-01-23T07:39:59;50.42;49.39;53.54;;
37163;Laerm;23057;48.554;14.454;2023-01-23T07:42:29;50.43;49.08;52.63;;
37163;Laerm;23057;48.554;14.454;2023-01-23T07:45:00;50.70;49.51;54.51;;
37163;Laerm;23057;48.554;14.454;2023-01-23T07:47:31;50.51;49.35;53.75;;
37163;Laerm;23057;48.554;14.454;2023-01-23T07:50:02;50.34;49.30;51.92;;
37163;Laerm;23057;48.554;14.454;2023-01-23T07:52:33;50.29;49.23;52.83;;
37163;Laerm;23057;48.554;14.454;2023-01-23T07:55:04;50.25;49.08;52.13;;
37163;Laerm;23057;48.554;14.454;2023-01-23T07:57:35;50.19;49.06;53.09;;
37163;Laerm;23057;48.554;14.454;2023-01-23T08:00:07;50.34;49.19;54.12;;
37163;Laerm;23057;48.554;14.454;2023-01-23T08:02:39;50.23;49.07;53.59;;
37163;Laerm;23057;48.554;14.454;2023-01-23T08:05:10;50.72;49.00;54.65;;
37163;Laerm;23057;48.554;14.454;2023-01-23T08:07:41;50.44;49.04;54.50;;
37163;Laerm;23057;48.554;14.454;2023-01-23T08:10:12;50.39;49.02;54.07;;
37163;Laerm;23057;48.554;14.454;2023-01-23T08:12:42;50.38;48.98;53.17;;
37163;Laerm;23057;48.554;14.454;2023-01-23T08:15:13;50.29;48.93;55.45;;
37163;Laerm;23057;48.554;14.454;2023-01-23T08:17:44;50.30;48.95;52.63;;
37163;Laerm;23057;48.554;14.454;2023-01-23T08:20:15;50.38;49.02;53.74;;
37163;Laerm;23057;48.554;14.454;2023-01-23T08:22:46;50.26;48.90;52.48;;
37163;Laerm;23057;48.554;14.454;2023-01-23T08:25:17;50.23;48.94;51.96;;
37163;Laerm;23057;48.554;14.454;2023-01-23T08:27:47;50.24;49.06;52.57;;
37163;Laerm;23057;48.554;14.454;2023-01-23T08:30:18;50.25;49.00;52.52;;
37163;Laerm;23057;48.554;14.454;2023-01-23T08:32:49;50.28;48.88;52.60;;
37163;Laerm;23057;48.554;14.454;2023-01-23T08:35:19;50.31;48.85;53.84;;
37163;Laerm;23057;48.554;14.454;2023-01-23T08:37:50;50.34;48.99;53.99;;
37163;Laerm;23057;48.554;14.454;2023-01-23T08:40:21;50.29;49.00;53.35;;
37163;Laerm;23057;48.554;14.454;2023-01-23T08:42:52;50.32;49.04;53.33;;
37163;Laerm;23057;48.554;14.454;2023-01-23T08:45:23;50.33;48.96;54.77;;
37163;Laerm;23057;48.554;14.454;2023-01-23T08:47:55;50.24;49.02;53.17;;
37163;Laerm;23057;48.554;14.454;2023-01-23T08:50:26;50.19;49.04;52.92;;
37163;Laerm;23057;48.554;14.454;2023-01-23T08:52:56;50.22;49.02;53.27;;
37163;Laerm;23057;48.554;14.454;2023-01-23T08:55:27;50.22;49.14;53.69;;
37163;Laerm;23057;48.554;14.454;2023-01-23T08:57:58;50.16;49.03;52.53;;
37163;Laerm;23057;48.554;14.454;2023-01-23T09:00:29;50.15;49.14;52.31;;
37163;Laerm;23057;48.554;14.454;2023-01-23T09:03:02;50.14;48.95;53.36;;
37163;Laerm;23057;48.554;14.454;2023-01-23T09:05:33;50.12;48.88;54.31;;
37163;Laerm;23057;48.554;14.454;2023-01-23T09:08:04;50.11;49.02;52.93;;
37163;Laerm;23057;48.554;14.454;2023-01-23T09:10:35;50.11;49.11;53.51;;
37163;Laerm;23057;48.554;14.454;2023-01-23T09:13:06;50.10;48.99;52.66;;
37163;Laerm;23057;48.554;14.454;2023-01-23T09:15:38;50.16;49.08;54.15;;
37163;Laerm;23057;48.554;14.454;2023-01-23T09:18:09;50.13;49.11;52.00;;
37163;Laerm;23057;48.554;14.454;2023-01-23T09:20:40;50.17;49.12;53.38;;
37163;Laerm;23057;48.554;14.454;2023-01-23T09:23:11;50.13;48.78;52.22;;
37163;Laerm;23057;48.554;14.454;2023-01-23T09:25:41;50.12;48.76;52.39;;
37163;Laerm;23057;48.554;14.454;2023-01-23T09:28:12;50.11;49.04;52.14;;
37163;Laerm;23057;48.554;14.454;2023-01-23T09:30:43;50.19;49.15;53.92;;
37163;Laerm;23057;48.554;14.454;2023-01-23T09:33:14;50.13;48.85;53.35;;
37163;Laerm;23057;48.554;14.454;2023-01-23T09:35:50;50.11;48.96;52.55;;
37163;Laerm;23057;48.554;14.454;2023-01-23T09:38:21;50.11;49.08;51.89;;
37163;Laerm;23057;48.554;14.454;2023-01-23T09:40:58;50.14;49.03;52.22;;
37163;Laerm;23057;48.554;14.454;2023-01-23T09:43:52;50.79;49.23;55.35;;
37163;Laerm;23057;48.554;14.454;2023-01-23T09:46:49;52.68;49.97;55.91;;
37163;Laerm;23057;48.554;14.454;2023-01-23T09:49:40;53.87;50.95;56.30;;
37163;Laerm;23057;48.554;14.454;2023-01-23T09:52:19;52.75;49.08;55.53;;
37163;Laerm;23057;48.554;14.454;2023-01-23T09:55:02;50.13;48.96;52.25;;
37163;Laerm;23057;48.554;14.454;2023-01-23T09:57:52;50.17;49.17;52.22;;
37163;Laerm;23057;48.554;14.454;2023-01-23T10:00:31;50.18;48.96;52.34;;
37163;Laerm;23057;48.554;14.454;2023-01-23T10:03:14;50.22;49.14;52.15;;
37163;Laerm;23057;48.554;14.454;2023-01-23T10:12:08;50.17;49.06;54.42;;
37163;Laerm;23057;48.554;14.454;2023-01-23T10:18:02;50.68;49.30;53.52;;
37163;Laerm;23057;48.554;14.454;2023-01-23T10:27:36;51.90;49.51;55.25;;
37163;Laerm;23057;48.554;14.454;2023-01-23T10:30:23;53.29;49.43;55.84;;
37163;Laerm;23057;48.554;14.454;2023-01-23T10:33:00;51.02;48.70;55.82;;
37163;Laerm;23057;48.554;14.454;2023-01-23T10:35:53;50.20;48.83;52.64;;
37163;Laerm;23057;48.554;14.454;2023-01-23T10:38:34;50.17;49.02;52.09;;
37163;Laerm;23057;48.554;14.454;2023-01-23T10:41:10;50.20;49.12;54.22;;
37163;Laerm;23057;48.554;14.454;2023-01-23T10:43:51;50.18;48.98;52.27;;
37163;Laerm;23057;48.554;14.454;2023-01-23T10:46:42;50.19;48.87;54.98;;
37163;Laerm;23057;48.554;14.454;2023-01-23T10:49:35;50.15;49.04;52.03;;
37163;Laerm;23057;48.554;14.454;2023-01-23T10:52:42;50.15;48.92;52.31;;
37163;Laerm;23057;48.554;14.454;2023-01-23T10:57:55;50.20;49.12;53.42;;
37163;Laerm;23057;48.554;14.454;2023-01-23T11:00:32;50.19;48.96;52.28;;
37163;Laerm;23057;48.554;14.454;2023-01-23T11:05:54;50.27;48.95;52.00;;
37163;Laerm;23057;48.554;14.454;2023-01-23T11:11:25;50.52;49.27;54.57;;
37163;Laerm;23057;48.554;14.454;2023-01-23T11:14:14;51.10;49.39;55.76;;
37163;Laerm;23057;48.554;14.454;2023-01-23T11:17:23;50.97;49.33;54.98;;
37163;Laerm;23057;48.554;14.454;2023-01-23T11:20:24;50.94;49.35;54.68;;
37163;Laerm;23057;48.554;14.454;2023-01-23T11:25:46;51.32;49.29;53.13;;
37163;Laerm;23057;48.554;14.454;2023-01-23T11:28:33;51.85;50.30;53.80;;
37163;Laerm;23057;48.554;14.454;2023-01-23T11:31:14;53.17;50.90;55.46;;
37163;Laerm;23057;48.554;14.454;2023-01-23T11:33:58;53.63;51.33;55.55;;
37163;Laerm;23057;48.554;14.454;2023-01-23T11:36:53;53.21;50.89;55.11;;
37163;Laerm;23057;48.554;14.454;2023-01-23T11:42:10;52.24;50.24;53.80;;
37163;Laerm;23057;48.554;14.454;2023-01-23T11:44:42;51.89;50.09;55.07;;
37163;Laerm;23057;48.554;14.454;2023-01-23T11:47:30;51.23;49.56;52.93;;
37163;Laerm;23057;48.554;14.454;2023-01-23T11:50:29;50.61;48.87;52.43;;
37163;Laerm;23057;48.554;14.454;2023-01-23T11:53:43;50.65;49.40;52.57;;
37163;Laerm;23057;48.554;14.454;2023-01-23T12:06:22;50.22;49.12;51.59;;
37163;Laerm;23057;48.554;14.454;2023-01-23T12:14:30;50.15;48.96;54.36;;
37163;Laerm;23057;48.554;14.454;2023-01-23T12:20:30;50.11;49.04;54.08;;
37163;Laerm;23057;48.554;14.454;2023-01-23T12:23:23;50.11;48.84;53.24;;
37163;Laerm;23057;48.554;14.454;2023-01-23T12:26:17;50.15;48.80;52.78;;
37163;Laerm;23057;48.554;14.454;2023-01-23T12:34:46;50.15;49.04;51.74;;
37163;Laerm;23057;48.554;14.454;2023-01-23T12:37:49;50.14;48.90;51.28;;
37163;Laerm;23057;48.554;14.454;2023-01-23T12:40:32;50.71;49.08;53.16;;
37163;Laerm;23057;48.554;14.454;2023-01-23T12:46:30;52.95;51.15;56.31;;
37163;Laerm;23057;48.554;14.454;2023-01-23T12:51:59;50.33;49.35;52.17;;
37163;Laerm;23057;48.554;14.454;2023-01-23T12:54:45;50.22;48.91;52.21;;
37163;Laerm;23057;48.554;14.454;2023-01-23T12:57:20;50.21;49.02;52.89;;
37163;Laerm;23057;48.554;14.454;2023-01-23T13:09:02;50.17;48.94;52.03;;
37163;Laerm;23057;48.554;14.454;2023-01-23T13:11:51;50.15;49.00;54.94;;
37163;Laerm;23057;48.554;14.454;2023-01-23T13:17:02;50.13;49.00;54.82;;
37163;Laerm;23057;48.554;14.454;2023-01-23T13:19:40;50.15;48.90;52.08;;
37163;Laerm;23057;48.554;14.454;2023-01-23T13:22:30;50.18;49.07;53.32;;
37163;Laerm;23057;48.554;14.454;2023-01-23T13:25:14;50.14;49.06;53.30;;
37163;Laerm;23057;48.554;14.454;2023-01-23T13:27:51;50.12;48.98;52.73;;
37163;Laerm;23057;48.554;14.454;2023-01-23T13:33:46;50.09;48.99;52.89;;
37163;Laerm;23057;48.554;14.454;2023-01-23T13:36:21;50.11;49.03;52.09;;
37163;Laerm;23057;48.554;14.454;2023-01-23T13:41:48;50.13;49.07;52.08;;
37163;Laerm;23057;48.554;14.454;2023-01-23T13:44:25;50.13;48.94;52.16;;
37163;Laerm;23057;48.554;14.454;2023-01-23T13:47:17;50.11;48.96;55.23;;
37163;Laerm;23057;48.554;14.454;2023-01-23T13:50:39;50.15;48.85;53.10;;
37163;Laerm;23057;48.554;14.454;2023-01-23T13:53:21;50.10;48.91;51.84;;
37163;Laerm;23057;48.554;14.454;2023-01-23T13:56:20;50.09;48.91;52.00;;
37163;Laerm;23057;48.554;14.454;2023-01-23T13:59:25;50.11;48.92;52.21;;
37163;Laerm;23057;48.554;14.454;2023-01-23T14:05:04;50.13;49.02;53.34;;
37163;Laerm;23057;48.554;14.454;2023-01-23T14:07:45;50.15;48.92;53.57;;
37163;Laerm;23057;48.554;14.454;2023-01-23T14:10:25;50.20;49.11;52.33;;
37163;Laerm;23057;48.554;14.454;2023-01-23T14:13:25;50.16;49.12;52.17;;
37163;Laerm;23057;48.554;14.454;2023-01-23T14:15:56;50.13;49.16;54.79;;
37163;Laerm;23057;48.554;14.454;2023-01-23T14:18:47;50.11;49.11;51.48;;
37163;Laerm;23057;48.554;14.454;2023-01-23T14:21:22;50.11;48.73;52.80;;
37163;Laerm;23057;48.554;14.454;2023-01-23T14:23:56;50.10;48.90;52.00;;
37163;Laerm;23057;48.554;14.454;2023-01-23T14:26:31;50.09;48.90;51.89;;
37163;Laerm;23057;48.554;14.454;2023-01-23T14:29:19;50.08;48.87;52.24;;
37163;Laerm;23057;48.554;14.454;2023-01-23T14:31:50;50.08;49.00;52.13;;
37163;Laerm;23057;48.554;14.454;2023-01-23T14:34:24;50.09;48.85;52.22;;
37163;Laerm;23057;48.554;14.454;2023-01-23T14:37:09;50.07;48.98;52.27;;
37163;Laerm;23057;48.554;14.454;2023-01-23T14:39:45;50.08;48.85;52.11;;
37163;Laerm;23057;48.554;14.454;2023-01-23T14:42:27;50.08;49.07;52.08;;
37163;Laerm;23057;48.554;14.454;2023-01-23T14:45:01;50.07;48.87;52.42;;
37163;Laerm;23057;48.554;14.454;2023-01-23T14:47:41;50.11;49.10;55.97;;
37163;Laerm;23057;48.554;14.454;2023-01-23T14:50:25;50.08;48.90;52.41;;
37163;Laerm;23057;48.554;14.454;2023-01-23T14:52:59;50.08;48.73;52.62;;
37163;Laerm;23057;48.554;14.454;2023-01-23T14:55:35;50.08;48.99;51.89;;
37163;Laerm;23057;48.554;14.454;2023-01-23T14:58:17;50.07;49.10;52.59;;
37163;Laerm;23057;48.554;14.454;2023-01-23T15:00:52;50.08;49.00;52.00;;
37163;Laerm;23057;48.554;14.454;2023-01-23T15:03:43;50.07;48.92;52.02;;
37163;Laerm;23057;48.554;14.454;2023-01-23T15:06:24;50.06;48.98;52.16;;
37163;Laerm;23057;48.554;14.454;2023-01-23T15:09:06;50.07;49.08;52.21;;
37163;Laerm;23057;48.554;14.454;2023-01-23T15:11:37;50.07;48.92;52.09;;
37163;Laerm;23057;48.554;14.454;2023-01-23T15:14:29;50.06;48.92;52.04;;
37163;Laerm;23057;48.554;14.454;2023-01-23T15:17:10;50.07;49.03;55.48;;
37163;Laerm;23057;48.554;14.454;2023-01-23T15:19:42;50.08;48.96;52.09;;
37163;Laerm;23057;48.554;14.454;2023-01-23T15:22:20;50.10;48.74;53.00;;
37163;Laerm;23057;48.554;14.454;2023-01-23T15:24:55;50.12;49.00;52.62;;
37163;Laerm;23057;48.554;14.454;2023-01-23T15:27:34;50.13;49.03;52.65;;
37163;Laerm;23057;48.554;14.454;2023-01-23T15:30:44;50.36;48.99;53.88;;
37163;Laerm;23057;48.554;14.454;2023-01-23T15:33:34;50.30;49.11;52.51;;
37163;Laerm;23057;48.554;14.454;2023-01-23T15:36:25;50.71;49.18;53.80;;
37163;Laerm;23057;48.554;14.454;2023-01-23T15:38:57;50.58;49.14;52.52;;
37163;Laerm;23057;48.554;14.454;2023-01-23T15:41:52;50.46;49.15;53.14;;